Time;durP1;ratioP1;P1;durP2;ratioP2;P2;SDS_P1;SDS_P2;PMS_P1;PMS_P2;Temp;Humidity;BMP_temperature;BMP_pressure;BME280_temperature;BME280_humidity;BME280_pressure;Samples;Min_cycle;Max_cycle;Signal;HPM_P1;HPM_P2
2022/03/05 00:01:39;;;;;;;36.40;15.20;;;;;;;-0.51;99.90;99936.05;103588;1303;24205;-29
2022/03/05 00:04:04;;;;;;;51.50;18.80;;;;;;;-0.49;99.99;99935.70;103485;1302;24313;-30
2022/03/05 00:06:30;;;;;;;36.00;14.70;;;;;;;-0.49;100.00;99928.83;103524;1300;24333;-25
2022/03/05 00:08:56;;;;;;;41.30;16.20;;;;;;;-0.48;99.98;99926.49;103519;1302;24456;-28
2022/03/05 00:11:21;;;;;;;48.60;18.10;;;;;;;-0.47;99.85;99933.45;103519;1300;24292;-29
2022/03/05 00:13:47;;;;;;;30.10;16.60;;;;;;;-0.47;99.55;99930.86;103507;1300;24286;-29
2022/03/05 00:16:13;;;;;;;33.60;15.30;;;;;;;-0.45;99.20;99929.64;103551;1303;24253;-25
2022/03/05 00:18:39;;;;;;;32.90;16.20;;;;;;;-0.48;99.29;99931.44;103539;1300;24384;-25
2022/03/05 00:21:04;;;;;;;38.30;14.90;;;;;;;-0.49;99.45;99928.18;103606;1301;22723;-29
2022/03/05 00:23:30;;;;;;;25.70;12.60;;;;;;;-0.50;99.70;99927.17;103631;1300;22510;-29
2022/03/05 00:25:55;;;;;;;37.50;16.90;;;;;;;-0.51;99.89;99926.89;103657;1300;24215;-25
2022/03/05 00:28:21;;;;;;;33.60;17.30;;;;;;;-0.52;99.82;99926.64;103517;1303;24402;-29
2022/03/05 00:30:47;;;;;;;45.60;17.20;;;;;;;-0.56;100.00;99926.06;103539;1300;22763;-28
2022/03/05 00:33:12;;;;;;;31.80;15.00;;;;;;;-0.55;100.00;99927.76;103508;1302;24311;-28
2022/03/05 00:35:38;;;;;;;32.20;15.30;;;;;;;-0.54;100.00;99928.19;103574;1303;22631;-29
2022/03/05 00:38:04;;;;;;;35.20;16.50;;;;;;;-0.53;99.98;99926.88;103749;1300;24223;-25
2022/03/05 00:40:29;;;;;;;31.70;14.60;;;;;;;-0.51;99.77;99930.39;103544;1300;24243;-25
2022/03/05 00:42:55;;;;;;;29.10;14.10;;;;;;;-0.50;99.60;99933.89;103489;1302;22656;-29
2022/03/05 00:45:21;;;;;;;27.70;13.30;;;;;;;-0.52;99.84;99930.36;103569;1300;24223;-31
2022/03/05 00:47:46;;;;;;;32.60;14.50;;;;;;;-0.52;99.53;99932.61;103533;1300;24358;-29
2022/03/05 00:50:12;;;;;;;33.50;14.00;;;;;;;-0.48;99.28;99931.05;103517;1302;24215;-25
2022/03/05 00:52:38;;;;;;;21.60;11.40;;;;;;;-0.46;99.08;99926.89;103523;1300;24211;-29
2022/03/05 00:55:05;;;;;;;33.60;15.40;;;;;;;-0.48;99.06;99930.77;103559;1303;24423;-28
2022/03/05 00:57:30;;;;;;;26.60;13.00;;;;;;;-0.48;98.92;99927.20;103590;1301;24348;-26
2022/03/05 00:59:56;;;;;;;29.40;12.90;;;;;;;-0.52;98.80;99927.14;103576;1300;24246;-29
2022/03/05 01:02:22;;;;;;;21.10;10.30;;;;;;;-0.51;98.94;99929.02;103557;1300;24429;-26
2022/03/05 01:04:47;;;;;;;31.60;13.70;;;;;;;-0.53;98.89;99925.45;103620;1301;24261;-30
2022/03/05 01:07:13;;;;;;;52.50;12.40;;;;;;;-0.47;99.08;99924.36;103509;1302;24320;-29
2022/03/05 01:09:38;;;;;;;29.80;14.80;;;;;;;-0.44;98.63;99922.92;103555;1300;24199;-28
2022/03/05 01:12:04;;;;;;;36.90;15.60;;;;;;;-0.45;98.57;99920.86;103529;1300;24297;-28
2022/03/05 01:14:30;;;;;;;33.00;13.80;;;;;;;-0.50;98.48;99920.52;103518;1300;24295;-25
2022/03/05 01:16:55;;;;;;;25.40;12.50;;;;;;;-0.51;98.53;99921.10;103534;1300;24210;-28
2022/03/05 01:19:21;;;;;;;27.80;12.80;;;;;;;-0.52;98.54;99923.11;103453;1302;24211;-29
2022/03/05 01:21:47;;;;;;;30.50;12.60;;;;;;;-0.53;98.71;99925.96;103555;1300;24364;-30
2022/03/05 01:24:12;;;;;;;35.90;15.20;;;;;;;-0.52;98.82;99924.85;103570;1300;24297;-26
2022/03/05 01:26:38;;;;;;;29.50;13.30;;;;;;;-0.54;98.62;99926.25;103576;1300;24316;-25
2022/03/05 01:29:04;;;;;;;31.70;14.80;;;;;;;-0.55;98.61;99928.92;103517;1300;24214;-28
2022/03/05 01:31:29;;;;;;;43.60;14.90;;;;;;;-0.54;98.57;99929.09;103600;1300;22511;-30
2022/03/05 01:33:55;;;;;;;32.90;14.20;;;;;;;-0.59;98.75;99933.54;103520;1301;22490;-27
2022/03/05 01:36:21;;;;;;;27.60;13.50;;;;;;;-0.59;98.76;99936.67;103535;1300;24292;-24
2022/03/05 01:38:46;;;;;;;39.90;17.80;;;;;;;-0.56;98.67;99938.55;103512;1302;24343;-26
2022/03/05 01:41:12;;;;;;;25.60;13.40;;;;;;;-0.59;98.58;99936.13;103576;1300;24381;-28
2022/03/05 01:43:37;;;;;;;36.70;17.50;;;;;;;-0.62;98.71;99940.56;103543;1300;24356;-28
2022/03/05 01:46:03;;;;;;;29.80;14.00;;;;;;;-0.64;98.84;99937.18;103497;1301;24376;-24
2022/03/05 01:48:29;;;;;;;41.20;17.80;;;;;;;-0.65;99.04;99938.17;103582;1300;24236;-26
2022/03/05 01:50:54;;;;;;;43.80;14.90;;;;;;;-0.65;99.11;99942.59;103588;1300;24282;-29
2022/03/05 01:53:20;;;;;;;30.20;15.70;;;;;;;-0.66;99.02;99939.78;103577;1300;24246;-28
2022/03/05 01:55:46;;;;;;;38.00;15.50;;;;;;;-0.68;98.94;99940.81;103521;1303;24212;-29
2022/03/05 01:58:12;;;;;;;28.80;14.90;;;;;;;-0.71;98.86;99942.13;103588;1301;22607;-25
2022/03/05 02:00:38;;;;;;;46.50;16.80;;;;;;;-0.76;99.06;99940.19;103359;1303;24305;-26
2022/03/05 02:03:04;;;;;;;28.20;13.60;;;;;;;-0.76;99.23;99937.71;103632;1300;24249;-26
2022/03/05 02:05:29;;;;;;;29.10;15.10;;;;;;;-0.79;99.41;99940.38;103595;1300;24193;-25
2022/03/05 02:07:55;;;;;;;26.70;12.90;;;;;;;-0.80;99.73;99942.75;103569;1300;24271;-25
2022/03/05 02:10:21;;;;;;;25.20;13.30;;;;;;;-0.79;99.64;99937.59;103565;1300;24367;-29
2022/03/05 02:12:46;;;;;;;36.10;15.50;;;;;;;-0.78;99.77;99936.64;103562;1303;24218;-29
2022/03/05 02:15:13;;;;;;;37.60;16.10;;;;;;;-0.82;99.84;99933.07;103519;1300;24372;-25
2022/03/05 02:17:39;;;;;;;33.60;14.70;;;;;;;-0.82;99.70;99933.42;103538;1300;24308;-29
2022/03/05 02:20:06;;;;;;;35.00;18.70;;;;;;;-0.85;99.69;99932.77;103558;1300;24266;-28
2022/03/05 02:22:31;;;;;;;22.30;12.20;;;;;;;-0.87;99.74;99932.70;103577;1300;22667;-25
2022/03/05 02:24:59;;;;;;;34.90;16.10;;;;;;;-0.89;99.80;99936.40;103555;1300;24247;-25
2022/03/05 02:27:25;;;;;;;34.40;15.20;;;;;;;-0.91;99.63;99931.27;103609;1300;24386;-29
2022/03/05 02:29:51;;;;;;;39.40;16.10;;;;;;;-0.97;99.89;99933.43;103531;1300;24338;-24
2022/03/05 02:32:17;;;;;;;43.00;15.10;;;;;;;-1.00;99.79;99933.09;103554;1300;24336;-28
2022/03/05 02:34:43;;;;;;;26.90;13.80;;;;;;;-1.03;99.90;99933.52;103573;1301;24377;-25
2022/03/05 02:37:10;;;;;;;32.80;14.40;;;;;;;-1.05;100.00;99935.72;103520;1300;24249;-28
2022/03/05 02:39:36;;;;;;;36.40;13.80;;;;;;;-1.06;100.00;99937.59;103629;1300;24297;-25
2022/03/05 02:42:02;;;;;;;24.70;11.20;;;;;;;-1.08;99.91;99938.27;103532;1300;24413;-25
2022/03/05 02:44:28;;;;;;;29.90;14.10;;;;;;;-1.11;99.97;99939.67;103528;1300;24215;-28
2022/03/05 02:46:54;;;;;;;27.30;14.30;;;;;;;-1.12;99.93;99943.61;103527;1300;24337;-26
2022/03/05 02:49:19;;;;;;;28.50;14.10;;;;;;;-1.18;99.95;99943.16;103492;1301;24318;-27
2022/03/05 02:51:45;;;;;;;25.20;14.00;;;;;;;-1.21;99.98;99944.44;103532;1300;24252;-24
2022/03/05 02:54:10;;;;;;;29.30;13.20;;;;;;;-1.23;100.00;99946.88;103491;1299;24376;-30
2022/03/05 02:56:36;;;;;;;20.10;10.20;;;;;;;-1.25;100.00;99948.42;103585;1300;24335;-25
2022/03/05 02:59:02;;;;;;;28.00;13.60;;;;;;;-1.25;100.00;99944.40;103514;1300;24310;-28
2022/03/05 03:01:29;;;;;;;29.60;13.50;;;;;;;-1.27;100.00;99942.58;103585;1300;24245;-25
2022/03/05 03:03:55;;;;;;;25.60;11.50;;;;;;;-1.34;100.00;99942.73;103552;1300;24374;-29
2022/03/05 03:06:21;;;;;;;38.50;16.10;;;;;;;-1.37;100.00;99941.90;103574;1300;24403;-25
2022/03/05 03:08:46;;;;;;;25.30;13.20;;;;;;;-1.40;100.00;99939.29;103546;1300;22616;-29
2022/03/05 03:11:12;;;;;;;31.10;13.90;;;;;;;-1.41;100.00;99941.64;103541;1301;24250;-25
2022/03/05 03:13:38;;;;;;;35.60;14.90;;;;;;;-1.45;100.00;99940.00;103281;1302;24301;-25
2022/03/05 03:16:04;;;;;;;34.80;14.20;;;;;;;-1.51;100.00;99939.71;103545;1301;24470;-29
2022/03/05 03:18:30;;;;;;;36.10;13.90;;;;;;;-1.53;100.00;99939.88;103536;1300;24719;-25
2022/03/05 03:20:56;;;;;;;31.10;14.80;;;;;;;-1.57;100.00;99935.70;103529;1300;26195;-28
2022/03/05 03:23:22;;;;;;;31.10;12.70;;;;;;;-1.55;100.00;99935.39;103563;1300;24346;-25
2022/03/05 03:25:47;;;;;;;28.30;13.60;;;;;;;-1.56;100.00;99937.60;103590;1300;24212;-29
2022/03/05 03:28:13;;;;;;;31.70;16.50;;;;;;;-1.60;100.00;99934.90;103553;1300;24281;-28
2022/03/05 03:30:39;;;;;;;38.60;16.50;;;;;;;-1.63;100.00;99937.56;103540;1300;24368;-25
2022/03/05 03:33:04;;;;;;;33.10;14.80;;;;;;;-1.63;100.00;99935.44;103518;1300;24237;-25
2022/03/05 03:35:30;;;;;;;35.90;15.30;;;;;;;-1.62;100.00;99932.37;103585;1300;22499;-25
2022/03/05 03:37:55;;;;;;;25.40;12.60;;;;;;;-1.63;100.00;99928.39;103629;1300;24227;-25
2022/03/05 03:40:21;;;;;;;23.70;13.40;;;;;;;-1.61;100.00;99931.13;103551;1300;22894;-29
2022/03/05 03:42:48;;;;;;;27.20;13.30;;;;;;;-1.63;100.00;99928.41;103567;1300;24259;-29
2022/03/05 03:45:14;;;;;;;26.90;14.50;;;;;;;-1.60;100.00;99926.48;103618;1299;24218;-28
2022/03/05 03:47:41;;;;;;;28.70;12.00;;;;;;;-1.65;100.00;99929.23;103636;1300;24300;-29
2022/03/05 03:50:08;;;;;;;27.20;13.30;;;;;;;-1.65;100.00;99927.83;103659;1299;24215;-25
2022/03/05 03:52:34;;;;;;;26.40;11.20;;;;;;;-1.64;100.00;99930.06;103643;1299;22713;-28
2022/03/05 03:55:00;;;;;;;35.00;13.60;;;;;;;-1.67;100.00;99928.82;103604;1300;24300;-25
2022/03/05 03:57:25;;;;;;;25.10;14.00;;;;;;;-1.65;100.00;99930.84;103545;1300;24241;-29
2022/03/05 03:59:52;;;;;;;33.90;12.40;;;;;;;-1.65;100.00;99929.58;103646;1299;24363;-25
2022/03/05 04:02:19;;;;;;;37.80;17.20;;;;;;;-1.62;100.00;99931.85;103591;1300;24256;-29
2022/03/05 04:04:46;;;;;;;22.10;11.40;;;;;;;-1.61;100.00;99936.36;103603;1299;24208;-25
2022/03/05 04:09:40;;;;;;;37.20;14.60;;;;;;;-1.66;100.00;99938.98;103621;1299;24270;-25
2022/03/05 04:12:07;;;;;;;30.50;13.00;;;;;;;-1.68;100.00;99940.85;103160;1299;656503;-24
2022/03/05 04:14:33;;;;;;;40.60;15.40;;;;;;;-1.67;100.00;99939.02;103558;1300;24423;-30
2022/03/05 04:17:00;;;;;;;30.00;14.40;;;;;;;-1.69;100.00;99940.55;103637;1299;22514;-28
2022/03/05 04:19:26;;;;;;;41.80;15.90;;;;;;;-1.67;100.00;99937.62;103644;1299;24243;-29
2022/03/05 04:21:51;;;;;;;29.10;15.50;;;;;;;-1.69;100.00;99944.06;103578;1300;24219;-25
2022/03/05 04:24:17;;;;;;;40.20;15.20;;;;;;;-1.64;100.00;99942.68;103577;1300;22508;-28
2022/03/05 04:26:43;;;;;;;38.80;15.60;;;;;;;-1.68;100.00;99946.85;103538;1300;22512;-24
2022/03/05 04:29:09;;;;;;;24.30;15.10;;;;;;;-1.66;100.00;99944.77;103656;1300;24362;-28
2022/03/05 04:31:34;;;;;;;36.50;15.00;;;;;;;-1.66;100.00;99946.52;103493;1302;24194;-29
2022/03/05 04:34:00;;;;;;;29.00;13.60;;;;;;;-1.67;100.00;99945.74;103592;1300;24208;-24
2022/03/05 04:36:26;;;;;;;26.40;14.80;;;;;;;-1.70;100.00;99948.23;103523;1300;24210;-25
2022/03/05 04:38:52;;;;;;;39.80;16.70;;;;;;;-1.68;100.00;99951.58;103589;1300;24256;-25
2022/03/05 04:41:17;;;;;;;37.50;17.00;;;;;;;-1.64;100.00;99955.17;103588;1300;24351;-28
2022/03/05 04:43:43;;;;;;;62.40;19.90;;;;;;;-1.60;100.00;99958.20;103624;1299;24219;-30
2022/03/05 04:46:09;;;;;;;41.80;17.20;;;;;;;-1.63;100.00;99960.92;103531;1300;24340;-30
2022/03/05 04:48:34;;;;;;;35.60;15.00;;;;;;;-1.69;100.00;99962.52;103607;1299;24257;-24
2022/03/05 04:51:00;;;;;;;38.90;16.80;;;;;;;-1.72;100.00;99962.05;103623;1300;24451;-25
2022/03/05 04:53:26;;;;;;;45.60;17.70;;;;;;;-1.71;100.00;99958.08;103610;1299;24275;-29
2022/03/05 04:55:51;;;;;;;46.50;19.50;;;;;;;-1.72;100.00;99961.47;103451;1300;24247;-27
2022/03/05 04:58:17;;;;;;;36.50;15.40;;;;;;;-1.72;100.00;99961.54;103641;1299;24288;-26
2022/03/05 05:00:43;;;;;;;43.40;16.80;;;;;;;-1.76;100.00;99963.73;103422;1300;22482;-26
2022/03/05 05:03:09;;;;;;;45.20;20.50;;;;;;;-1.79;100.00;99958.46;103627;1299;24365;-27
2022/03/05 05:05:34;;;;;;;43.20;19.20;;;;;;;-1.80;100.00;99959.27;103569;1300;24215;-29
2022/03/05 05:08:00;;;;;;;34.00;16.90;;;;;;;-1.80;100.00;99959.09;103608;1300;24352;-28
2022/03/05 05:10:26;;;;;;;32.90;14.70;;;;;;;-1.79;100.00;99958.97;103610;1300;24301;-25
2022/03/05 05:12:51;;;;;;;32.90;16.30;;;;;;;-1.81;100.00;99961.25;103730;1299;24313;-29
2022/03/05 05:15:17;;;;;;;41.80;20.80;;;;;;;-1.83;100.00;99963.00;103654;1300;24182;-25
2022/03/05 05:17:44;;;;;;;36.70;16.70;;;;;;;-1.84;100.00;99964.94;103653;1297;24234;-29
2022/03/05 05:20:11;;;;;;;48.30;22.00;;;;;;;-1.89;100.00;99964.38;103580;1300;24240;-30
2022/03/05 05:22:37;;;;;;;33.00;16.90;;;;;;;-1.86;100.00;99964.92;103572;1300;24256;-27
2022/03/05 05:25:03;;;;;;;57.10;19.90;;;;;;;-1.86;100.00;99960.55;103596;1299;24423;-29
2022/03/05 05:27:35;;;;;;;46.20;19.00;;;;;;;-1.87;100.00;99966.00;103492;1302;24327;-26
2022/03/05 05:30:00;;;;;;;48.80;17.30;;;;;;;-1.86;100.00;99963.86;103585;1300;22510;-24
2022/03/05 05:32:26;;;;;;;29.30;13.90;;;;;;;-1.84;100.00;99965.15;103692;1300;24234;-30
2022/03/05 05:34:52;;;;;;;45.40;15.80;;;;;;;-1.80;100.00;99965.08;103505;1300;24359;-25
2022/03/05 05:37:17;;;;;;;26.00;13.30;;;;;;;-1.78;100.00;99966.63;103628;1300;24233;-29
2022/03/05 05:39:43;;;;;;;28.30;12.90;;;;;;;-1.75;100.00;99968.36;103488;1302;22959;-25
2022/03/05 05:42:09;;;;;;;33.20;15.80;;;;;;;-1.74;100.00;99969.58;103676;1299;24217;-24
2022/03/05 05:44:35;;;;;;;38.80;17.50;;;;;;;-1.72;100.00;99971.70;103591;1300;24440;-30
2022/03/05 05:47:01;;;;;;;38.20;19.00;;;;;;;-1.67;100.00;99968.21;103532;1300;24308;-27
2022/03/05 05:49:27;;;;;;;35.50;19.60;;;;;;;-1.68;100.00;99973.30;103584;1300;24241;-24
2022/03/05 05:51:52;;;;;;;47.40;20.00;;;;;;;-1.72;100.00;99970.82;103529;1300;24319;-28
2022/03/05 05:54:18;;;;;;;39.00;18.80;;;;;;;-1.72;100.00;99970.59;103583;1300;24294;-25
2022/03/05 05:56:44;;;;;;;38.50;18.10;;;;;;;-1.69;100.00;99972.86;103497;1301;24298;-25
2022/03/05 05:59:10;;;;;;;39.50;19.40;;;;;;;-1.63;100.00;99970.40;103554;1300;22493;-29
2022/03/05 06:01:36;;;;;;;38.90;20.20;;;;;;;-1.53;100.00;99966.16;103588;1300;24368;-24
2022/03/05 06:04:02;;;;;;;41.10;21.40;;;;;;;-1.53;100.00;99973.72;103366;1302;24353;-26
2022/03/05 06:06:28;;;;;;;30.50;17.60;;;;;;;-1.56;100.00;99973.37;103579;1300;24255;-26
2022/03/05 06:08:53;;;;;;;40.90;19.50;;;;;;;-1.48;100.00;99969.33;103521;1300;24223;-28
2022/03/05 06:11:19;;;;;;;47.80;19.40;;;;;;;-1.38;100.00;99970.08;103528;1300;24349;-26
2022/03/05 06:13:45;;;;;;;44.20;20.20;;;;;;;-1.33;100.00;99969.05;103541;1300;24221;-30
2022/03/05 06:16:12;;;;;;;44.10;20.60;;;;;;;-1.27;100.00;99971.96;103587;1300;24417;-27
2022/03/05 06:18:37;;;;;;;71.80;43.30;;;;;;;-1.18;100.00;99970.60;103549;1300;22632;-25
2022/03/05 06:21:05;;;;;;;42.10;20.40;;;;;;;-1.10;100.00;99971.96;103557;1300;24249;-30
2022/03/05 06:23:32;;;;;;;36.80;17.80;;;;;;;-1.07;99.57;99979.68;103561;1300;24367;-25
2022/03/05 06:25:57;;;;;;;28.40;17.40;;;;;;;-1.13;99.35;99985.02;103581;1300;24245;-25
2022/03/05 06:28:23;;;;;;;40.30;18.60;;;;;;;-1.19;99.26;99988.23;103524;1302;22508;-25
2022/03/05 06:30:49;;;;;;;38.70;19.00;;;;;;;-1.21;99.35;99988.88;103503;1300;24404;-24
2022/03/05 06:33:15;;;;;;;38.60;19.40;;;;;;;-1.05;99.33;99989.39;103617;1300;24358;-29
2022/03/05 06:35:40;;;;;;;35.60;18.40;;;;;;;-1.07;99.11;99994.78;103517;1302;24253;-29
2022/03/05 06:38:06;;;;;;;27.40;13.70;;;;;;;-1.12;99.06;100001.10;103500;1302;24484;-25
2022/03/05 06:40:32;;;;;;;30.50;16.10;;;;;;;-1.08;99.28;100000.23;103616;1300;24195;-29
2022/03/05 06:42:58;;;;;;;41.80;20.40;;;;;;;-1.06;98.98;100002.62;103581;1300;24229;-30
2022/03/05 06:45:24;;;;;;;38.40;18.30;;;;;;;-1.08;98.76;100007.31;103615;1300;24368;-27
2022/03/05 06:47:49;;;;;;;35.00;16.30;;;;;;;-1.06;98.72;100004.89;103542;1299;24353;-28
2022/03/05 06:50:15;;;;;;;30.90;16.60;;;;;;;-1.08;98.65;100008.17;103605;1300;22744;-25
2022/03/05 06:52:41;;;;;;;35.40;16.90;;;;;;;-1.12;98.83;100006.90;103612;1300;24413;-29
2022/03/05 06:55:08;;;;;;;31.00;17.80;;;;;;;-1.06;98.97;100011.21;103613;1300;24361;-25
2022/03/05 06:57:34;;;;;;;30.20;15.70;;;;;;;-0.98;98.99;100013.45;103673;1300;24249;-28
2022/03/05 07:00:00;;;;;;;54.80;19.30;;;;;;;-0.91;98.51;100010.88;103545;1300;22694;-26
2022/03/05 07:02:25;;;;;;;37.50;19.00;;;;;;;-0.93;98.31;100006.83;103602;1300;24400;-28
2022/03/05 07:04:51;;;;;;;34.10;18.10;;;;;;;-0.90;98.42;100005.87;103633;1300;24351;-30
2022/03/05 07:07:17;;;;;;;31.20;16.40;;;;;;;-0.88;98.10;100007.32;103486;1302;24232;-25
2022/03/05 07:09:43;;;;;;;35.10;17.40;;;;;;;-0.87;98.03;100007.41;103607;1300;24426;-30
2022/03/05 07:12:09;;;;;;;30.30;16.70;;;;;;;-0.89;97.96;100007.23;103614;1299;24215;-28
2022/03/05 07:14:35;;;;;;;43.20;14.90;;;;;;;-0.94;98.08;100011.08;103600;1300;24211;-29
2022/03/05 07:17:02;;;;;;;45.30;22.60;;;;;;;-0.92;98.14;100011.31;103583;1302;24368;-26
2022/03/05 07:19:27;;;;;;;43.70;18.30;;;;;;;-0.90;97.88;100012.18;103516;1300;24224;-31
2022/03/05 07:21:53;;;;;;;32.00;16.80;;;;;;;-0.87;97.85;100015.37;103595;1300;24333;-25
2022/03/05 07:24:19;;;;;;;38.30;20.70;;;;;;;-0.80;97.71;100012.70;103538;1302;24400;-26
2022/03/05 07:26:45;;;;;;;35.50;14.90;;;;;;;-0.68;97.89;100015.02;103527;1300;24291;-29
2022/03/05 07:29:10;;;;;;;49.40;20.90;;;;;;;-0.66;97.30;100021.03;103668;1300;24288;-26
2022/03/05 07:31:37;;;;;;;43.90;20.90;;;;;;;-0.73;97.04;100021.41;103545;1302;24421;-28
2022/03/05 07:34:03;;;;;;;46.30;20.20;;;;;;;-0.74;96.94;100026.90;103506;1300;22609;-29
2022/03/05 07:36:30;;;;;;;64.70;25.50;;;;;;;-0.81;97.08;100030.92;103572;1299;24208;-25
2022/03/05 07:38:56;;;;;;;48.00;20.20;;;;;;;-0.81;96.91;100033.36;103441;1302;24220;-29
2022/03/05 07:41:21;;;;;;;42.20;19.10;;;;;;;-0.81;96.98;100036.70;103581;1300;24307;-30
2022/03/05 07:43:47;;;;;;;42.90;20.10;;;;;;;-0.80;97.13;100038.71;103531;1300;22496;-25
2022/03/05 07:46:13;;;;;;;47.60;19.30;;;;;;;-0.70;97.00;100044.40;103521;1300;24298;-25
2022/03/05 07:48:38;;;;;;;41.40;21.00;;;;;;;-0.57;97.06;100048.36;103527;1300;24320;-25
2022/03/05 07:51:04;;;;;;;55.00;19.60;;;;;;;-0.48;96.62;100044.34;103518;1300;24245;-29
2022/03/05 07:53:31;;;;;;;41.90;20.00;;;;;;;-0.48;95.45;100051.39;103508;1300;22509;-26
2022/03/05 07:55:57;;;;;;;52.20;22.20;;;;;;;-0.51;94.54;100053.59;103490;1300;24365;-25
2022/03/05 07:58:22;;;;;;;55.10;23.10;;;;;;;-0.52;94.23;100053.30;103603;1300;24224;-30
2022/03/05 08:00:48;;;;;;;56.60;23.00;;;;;;;-0.51;94.21;100055.16;103552;1301;22689;-28
2022/03/05 08:03:14;;;;;;;48.00;22.90;;;;;;;-0.56;93.31;100057.09;103560;1300;22792;-28
2022/03/05 08:05:41;;;;;;;58.50;22.80;;;;;;;-0.54;93.17;100059.23;103546;1300;22506;-28
2022/03/05 08:08:07;;;;;;;50.30;18.80;;;;;;;-0.51;93.51;100057.44;103480;1300;24345;-28
2022/03/05 08:10:32;;;;;;;50.90;19.60;;;;;;;-0.29;94.71;100059.38;103571;1300;24301;-28
2022/03/05 08:12:58;;;;;;;49.10;23.60;;;;;;;-0.33;93.21;100061.75;103538;1302;24311;-25
2022/03/05 08:15:23;;;;;;;90.70;34.60;;;;;;;-0.41;92.75;100059.55;103519;1300;24238;-29
2022/03/05 08:17:52;;;;;;;73.70;33.60;;;;;;;-0.47;92.48;100061.04;103329;1302;24241;-27
2022/03/05 08:20:20;;;;;;;84.70;35.10;;;;;;;-0.56;91.88;100061.46;103577;1300;24427;-29
2022/03/05 08:22:45;;;;;;;82.30;32.30;;;;;;;-0.49;92.24;100058.55;103648;1300;24228;-29
2022/03/05 08:25:12;;;;;;;79.00;27.30;;;;;;;-0.36;92.25;100062.35;103479;1302;22788;-28
2022/03/05 08:27:38;;;;;;;53.70;23.20;;;;;;;-0.27;91.24;100064.30;103639;1300;24348;-32
2022/03/05 08:30:05;;;;;;;60.30;26.30;;;;;;;-0.24;89.89;100064.98;103464;1300;24212;-28
2022/03/05 08:32:31;;;;;;;60.30;28.10;;;;;;;-0.12;90.16;100069.36;103583;1300;24296;-27
2022/03/05 08:34:56;;;;;;;62.80;27.80;;;;;;;0.16;91.26;100064.52;103515;1300;24199;-29
2022/03/05 08:37:22;;;;;;;52.60;24.40;;;;;;;0.27;90.72;100067.58;103507;1300;24257;-28
2022/03/05 08:39:48;;;;;;;65.70;29.30;;;;;;;0.44;91.31;100072.83;103569;1300;24211;-29
2022/03/05 08:42:14;;;;;;;61.90;25.50;;;;;;;0.44;90.11;100074.38;103612;1300;24356;-24
2022/03/05 08:44:39;;;;;;;50.40;23.40;;;;;;;0.44;89.19;100077.02;103563;1300;24295;-24
2022/03/05 08:47:06;;;;;;;43.30;20.10;;;;;;;0.34;88.67;100080.78;103557;1300;22702;-26
2022/03/05 08:49:31;;;;;;;50.70;23.50;;;;;;;0.29;88.77;100082.43;103574;1300;24201;-25
2022/03/05 08:51:57;;;;;;;47.50;21.10;;;;;;;0.29;88.52;100086.13;103546;1300;22503;-25
2022/03/05 08:54:25;;;;;;;41.10;20.40;;;;;;;-0.04;88.10;100090.84;103581;1300;22502;-28
2022/03/05 08:56:52;;;;;;;38.20;19.60;;;;;;;-0.06;88.40;100092.19;103585;1300;25346;-29
2022/03/05 08:59:18;;;;;;;44.40;20.40;;;;;;;-0.13;89.08;100094.45;103577;1299;22551;-26
2022/03/05 09:01:44;;;;;;;39.90;20.20;;;;;;;-0.24;88.98;100092.63;103648;1300;24370;-27
2022/03/05 09:04:10;;;;;;;42.70;19.90;;;;;;;-0.27;89.08;100097.80;103600;1300;24247;-29
2022/03/05 09:06:35;;;;;;;51.70;21.60;;;;;;;-0.26;89.48;100094.20;103496;1301;24263;-29
2022/03/05 09:09:02;;;;;;;67.90;26.80;;;;;;;-0.21;89.63;100090.64;103567;1300;24352;-29
2022/03/05 09:11:28;;;;;;;53.40;23.00;;;;;;;-0.13;89.61;100090.96;103531;1300;24329;-26
2022/03/05 09:13:54;;;;;;;38.10;18.40;;;;;;;-0.07;89.87;100090.30;103535;1300;24215;-29
2022/03/05 09:16:19;;;;;;;36.20;17.80;;;;;;;0.09;90.18;100089.70;103505;1300;24280;-29
2022/03/05 09:18:45;;;;;;;44.70;18.10;;;;;;;0.17;89.85;100085.60;103560;1300;24237;-28
2022/03/05 09:21:12;;;;;;;47.60;19.60;;;;;;;0.32;89.71;100088.86;103500;1301;24218;-24
2022/03/05 09:23:38;;;;;;;46.40;18.60;;;;;;;0.25;89.11;100090.45;103584;1300;24233;-27
2022/03/05 09:26:04;;;;;;;50.70;23.30;;;;;;;0.25;89.26;100091.02;103281;1300;22504;-31
2022/03/05 09:28:30;;;;;;;38.00;17.00;;;;;;;0.26;89.79;100089.30;103564;1300;24244;-25
2022/03/05 09:30:55;;;;;;;49.50;18.30;;;;;;;0.24;89.19;100088.55;103516;1300;24307;-24
2022/03/05 09:33:22;;;;;;;35.30;14.20;;;;;;;0.10;89.24;100088.92;103499;1302;24384;-29
2022/03/05 09:35:49;;;;;;;55.30;20.60;;;;;;;0.30;89.88;100086.94;103530;1301;24267;-31
2022/03/05 09:38:15;;;;;;;42.40;19.90;;;;;;;0.23;89.04;100096.09;103529;1300;24314;-27
2022/03/05 09:40:41;;;;;;;46.10;20.00;;;;;;;0.19;88.73;100090.90;103566;1300;24295;-27
2022/03/05 09:43:07;;;;;;;40.90;16.50;;;;;;;0.49;88.29;100089.72;103522;1301;24189;-24
2022/03/05 09:45:33;;;;;;;44.70;20.60;;;;;;;0.33;88.49;100093.39;103691;1299;24237;-28
2022/03/05 09:47:59;;;;;;;47.50;21.30;;;;;;;0.36;88.83;100092.97;103644;1300;24397;-29
2022/03/05 09:50:28;;;;;;;44.40;20.40;;;;;;;0.30;88.83;100096.27;103618;1299;24292;-24
2022/03/05 09:52:55;;;;;;;41.30;18.50;;;;;;;0.09;88.79;100096.06;103692;1299;23992;-29
2022/03/05 09:55:21;;;;;;;53.30;21.40;;;;;;;-0.02;89.75;100098.74;103545;1302;24249;-29
2022/03/05 09:57:46;;;;;;;47.00;19.40;;;;;;;0.23;90.13;100090.80;103558;1300;24320;-29
2022/03/05 10:00:12;;;;;;;42.20;20.40;;;;;;;0.15;89.48;100098.59;103655;1300;24313;-25
2022/03/05 10:02:38;;;;;;;33.40;13.70;;;;;;;0.49;89.30;100096.03;103578;1301;24246;-29
2022/03/05 10:05:11;;;;;;;46.20;21.20;;;;;;;0.46;88.59;100095.91;103558;1300;25074;-25
2022/03/05 10:07:37;;;;;;;40.70;17.70;;;;;;;0.26;89.80;100095.87;103585;1300;24269;-24
2022/03/05 10:10:07;;;;;;;53.00;23.00;;;;;;;0.37;90.06;100095.88;103660;1299;24226;-25
2022/03/05 10:12:33;;;;;;;53.70;21.20;;;;;;;0.48;89.86;100092.96;103683;1300;24252;-29
2022/03/05 10:15:02;;;;;;;38.20;18.90;;;;;;;0.32;88.53;100092.18;103637;1300;24337;-29
2022/03/05 10:17:28;;;;;;;41.50;18.50;;;;;;;0.26;89.55;100091.05;103712;1300;24208;-25
2022/03/05 10:20:05;;;;;;;41.60;19.40;;;;;;;0.47;89.73;100094.08;103591;1300;24481;-29
2022/03/05 10:22:32;;;;;;;43.30;20.20;;;;;;;0.64;88.65;100091.93;103676;1300;24229;-25
2022/03/05 10:24:57;;;;;;;43.20;16.80;;;;;;;0.55;88.50;100092.30;103626;1300;24208;-29
2022/03/05 10:27:23;;;;;;;45.50;19.40;;;;;;;0.51;88.53;100093.81;103598;1300;24200;-24
2022/03/05 10:29:49;;;;;;;50.50;18.20;;;;;;;0.82;88.48;100086.46;103622;1300;22835;-29
2022/03/05 10:32:16;;;;;;;43.20;18.90;;;;;;;0.58;87.33;100092.91;103637;1299;24252;-24
2022/03/05 10:34:42;;;;;;;43.80;17.50;;;;;;;0.71;87.49;100088.90;103375;1303;22501;-26
2022/03/05 10:37:08;;;;;;;50.30;21.50;;;;;;;0.62;86.40;100089.61;103632;1300;24298;-24
2022/03/05 10:39:34;;;;;;;35.30;17.00;;;;;;;1.03;87.38;100081.34;103594;1300;22495;-30
2022/03/05 10:42:00;;;;;;;48.30;21.00;;;;;;;1.63;85.89;100084.57;103668;1299;24189;-23
2022/03/05 10:44:26;;;;;;;44.10;18.70;;;;;;;1.51;85.64;100084.10;103644;1300;22599;-25
2022/03/05 10:46:55;;;;;;;47.00;22.20;;;;;;;1.85;83.95;100081.61;103530;1302;24287;-24
2022/03/05 10:49:26;;;;;;;41.10;17.90;;;;;;;1.65;82.88;100078.80;103582;1300;24305;-25
2022/03/05 10:52:06;;;;;;;23.20;8.50;;;;;;;2.04;83.91;100077.07;103553;1300;24302;-24
2022/03/05 10:54:39;;;;;;;35.40;18.90;;;;;;;2.50;80.14;100077.12;103678;1300;24295;-28
2022/03/05 10:57:07;;;;;;;;;;;;;;;2.22;80.88;100075.70;103645;1300;24085;-28
2022/03/05 10:59:34;;;;;;;35.60;17.40;;;;;;;2.26;80.51;100075.58;103473;1300;24332;-30
2022/03/05 11:02:00;;;;;;;42.30;19.90;;;;;;;2.49;80.46;100074.02;103725;1300;24317;-28